createdAt,value
2019-01-25T00:01:18.286Z,96766.98
2019-01-25T00:03:45.916Z,96755.81
2019-01-25T00:06:13.595Z,96758.12
2019-01-25T00:08:41.156Z,96759.58
2019-01-25T00:11:08.707Z,96771.35
2019-01-25T00:13:36.461Z,96764.70
2019-01-25T00:16:04.799Z,96767.14
2019-01-25T00:18:32.670Z,96773.09
2019-01-25T00:21:00.272Z,96779.28
2019-01-25T00:23:27.796Z,96779.34
2019-01-25T00:25:55.326Z,96779.08
2019-01-25T00:28:22.925Z,96783.11
2019-01-25T00:30:50.578Z,96784.11
2019-01-25T00:33:19.298Z,96784.36
2019-01-25T00:35:46.963Z,96784.80
2019-01-25T00:38:14.642Z,96786.55
2019-01-25T00:40:42.396Z,96792.41
2019-01-25T00:43:10.153Z,96789.88
2019-01-25T00:45:37.869Z,96796.06
2019-01-25T00:48:05.582Z,96791.84
2019-01-25T00:50:33.412Z,96800.69
2019-01-25T00:53:01.141Z,96794.05
2019-01-25T00:55:28.811Z,96793.73
2019-01-25T00:57:56.481Z,96813.85
2019-01-25T01:00:25.108Z,96817.05
2019-01-25T01:02:55.770Z,96805.09
2019-01-25T01:05:23.513Z,96803.96
2019-01-25T01:07:51.674Z,96811.42
2019-01-25T01:10:21.335Z,96803.81
2019-01-25T01:12:49.711Z,96816.80
2019-01-25T01:15:17.495Z,96817.38
2019-01-25T01:17:45.364Z,96822.98
2019-01-25T01:20:15.000Z,96829.05
2019-01-25T01:22:42.733Z,96827.38
2019-01-25T01:25:11.607Z,96830.42
2019-01-25T01:27:39.313Z,96829.82
2019-01-25T01:30:09.752Z,96829.48
2019-01-25T01:32:37.307Z,96830.98
2019-01-25T01:35:05.175Z,96825.32
2019-01-25T01:37:32.743Z,96825.63
2019-01-25T01:40:00.504Z,96824.83
2019-01-25T01:42:28.089Z,96829.06
2019-01-25T01:44:55.727Z,96825.59
2019-01-25T01:47:23.367Z,96833.80
2019-01-25T01:49:51.160Z,96831.17
2019-01-25T01:52:18.728Z,96838.50
2019-01-25T01:54:46.420Z,96832.48
2019-01-25T01:57:13.987Z,96829.03
2019-01-25T01:59:44.551Z,96823.56
2019-01-25T02:02:12.785Z,96827.29
2019-01-25T02:04:40.374Z,96826.84
2019-01-25T02:07:08.381Z,96823.77
2019-01-25T02:09:36.064Z,96824.58
2019-01-25T02:12:03.608Z,96824.77
2019-01-25T02:14:31.281Z,96827.36
2019-01-25T02:16:58.957Z,96815.31
2019-01-25T02:19:26.528Z,96817.13
2019-01-25T02:21:54.127Z,96813.57
2019-01-25T02:24:21.763Z,96814.79
2019-01-25T02:26:49.380Z,96821.22
2019-01-25T02:29:17.010Z,96825.04
2019-01-25T02:31:44.804Z,96821.67
2019-01-25T02:34:12.499Z,96833.83
2019-01-25T02:36:41.947Z,96824.14
2019-01-25T02:39:09.528Z,96824.77
2019-01-25T02:41:37.227Z,96829.58
2019-01-25T02:44:04.940Z,96827.77
2019-01-25T02:46:32.540Z,96828.56
2019-01-25T02:49:00.161Z,96830.41
2019-01-25T02:51:27.696Z,96829.55
2019-01-25T02:53:55.267Z,96836.30
2019-01-25T02:56:22.952Z,96830.80
2019-01-25T02:58:50.520Z,96825.77
2019-01-25T03:01:18.055Z,96820.55
2019-01-25T03:03:45.723Z,96826.73
2019-01-25T03:06:13.317Z,96813.38
2019-01-25T03:08:40.871Z,96818.47
2019-01-25T03:11:08.635Z,96816.43
2019-01-25T03:13:36.250Z,96827.04
2019-01-25T03:16:03.764Z,96817.05
2019-01-25T03:18:31.378Z,96820.66
2019-01-25T03:20:58.963Z,96817.66
2019-01-25T03:23:26.488Z,96823.61
2019-01-25T03:25:56.042Z,96825.81
2019-01-25T03:28:23.625Z,96836.05
2019-01-25T03:30:51.293Z,96831.78
2019-01-25T03:33:18.905Z,96839.94
2019-01-25T03:35:46.513Z,96835.38
2019-01-25T03:38:14.224Z,96844.09
2019-01-25T03:40:42.065Z,96836.28
2019-01-25T03:43:09.764Z,96832.47
2019-01-25T03:45:37.353Z,96837.58
2019-01-25T03:48:05.184Z,96844.06
2019-01-25T03:50:32.879Z,96839.77
2019-01-25T03:53:00.486Z,96850.08
2019-01-25T03:55:28.190Z,96857.37
2019-01-25T03:57:55.865Z,96844.48
2019-01-25T04:00:26.954Z,96851.78
2019-01-25T04:02:54.570Z,96856.67
2019-01-25T04:05:22.271Z,96860.53
2019-01-25T04:07:49.888Z,96853.98
2019-01-25T04:10:19.606Z,96860.45
2019-01-25T04:12:47.282Z,96869.11
2019-01-25T04:15:22.886Z,96858.31
2019-01-25T04:17:50.569Z,96863.92
2019-01-25T04:20:18.386Z,96862.17
2019-01-25T04:22:46.091Z,96859.56
2019-01-25T04:25:15.952Z,96858.66
2019-01-25T04:27:43.700Z,96865.86
2019-01-25T04:30:14.440Z,96866.71
2019-01-25T04:32:42.163Z,96876.92
2019-01-25T04:35:09.872Z,96874.41
2019-01-25T04:37:37.577Z,96877.30
2019-01-25T04:40:07.371Z,96879.06
2019-01-25T04:42:35.066Z,96874.28
2019-01-25T04:45:03.198Z,96879.40
2019-01-25T04:47:30.844Z,96875.97
2019-01-25T04:49:58.537Z,96874.28
2019-01-25T04:52:26.182Z,96877.30
2019-01-25T04:54:53.898Z,96872.90
2019-01-25T04:57:21.622Z,96889.10
2019-01-25T04:59:49.314Z,96882.54
2019-01-25T05:02:17.019Z,96881.23
2019-01-25T05:04:44.723Z,96879.47
2019-01-25T05:07:12.298Z,96880.38
2019-01-25T05:09:40.051Z,96878.94
2019-01-25T05:12:07.811Z,96883.28
2019-01-25T05:14:35.589Z,96881.25
2019-01-25T05:17:03.780Z,96882.22
2019-01-25T05:19:38.101Z,96893.22
2019-01-25T05:22:06.303Z,96874.42
2019-01-25T05:24:34.133Z,96887.27
2019-01-25T05:27:03.128Z,96896.22
2019-01-25T05:29:53.871Z,96905.52
2019-01-25T05:32:21.680Z,96901.70
2019-01-25T05:34:49.344Z,96896.56
2019-01-25T05:37:17.049Z,96888.97
2019-01-25T05:39:44.707Z,96906.11
2019-01-25T05:42:12.396Z,96904.77
2019-01-25T05:44:39.961Z,96908.31
2019-01-25T05:47:10.929Z,96909.17
2019-01-25T05:49:38.591Z,96918.64
2019-01-25T05:52:10.229Z,96916.06
2019-01-25T05:54:37.841Z,96907.90
2019-01-25T05:57:05.480Z,96916.32
2019-01-25T05:59:33.082Z,96914.92
2019-01-25T06:02:00.849Z,96926.02
2019-01-25T06:04:33.395Z,96930.74
2019-01-25T06:07:01.019Z,96925.10
2019-01-25T06:09:28.637Z,96934.55
2019-01-25T06:11:56.348Z,96941.52
2019-01-25T06:14:23.882Z,96942.36
2019-01-25T06:16:51.531Z,96944.58
2019-01-25T06:19:19.127Z,96934.69
2019-01-25T06:21:46.866Z,96944.45
2019-01-25T06:24:14.452Z,96950.52
2019-01-25T06:26:44.527Z,96949.08
2019-01-25T06:29:12.115Z,96959.70
2019-01-25T06:31:39.927Z,96964.02
2019-01-25T06:34:08.214Z,96967.39
2019-01-25T06:36:35.865Z,96975.13
2019-01-25T06:39:06.922Z,96972.90
2019-01-25T06:41:34.698Z,96979.86
2019-01-25T06:44:02.451Z,96984.58
2019-01-25T06:46:30.111Z,96987.97
2019-01-25T06:48:57.878Z,96996.59
2019-01-25T06:51:25.602Z,96992.77
2019-01-25T06:53:53.353Z,96999.09
2019-01-25T06:56:21.159Z,97002.53
2019-01-25T06:59:06.932Z,96995.98
2019-01-25T07:01:54.886Z,97001.95
2019-01-25T07:04:22.614Z,97008.81
2019-01-25T07:06:50.302Z,97001.92
2019-01-25T07:09:18.026Z,97011.77
2019-01-25T07:11:51.597Z,97007.05
2019-01-25T07:14:15.419Z,97001.77
2019-01-25T07:16:43.152Z,97009.86
2019-01-25T07:19:10.815Z,97011.95
2019-01-25T07:21:38.392Z,97022.70
2019-01-25T07:24:06.149Z,97024.34
2019-01-25T07:26:33.895Z,97022.27
2019-01-25T07:29:01.541Z,97026.43
2019-01-25T07:31:29.129Z,97033.84
2019-01-25T07:33:56.800Z,97035.20
2019-01-25T07:36:24.499Z,97039.50
2019-01-25T07:38:52.155Z,97042.44
2019-01-25T07:41:19.895Z,97048.02
2019-01-25T07:43:47.622Z,97035.47
2019-01-25T07:46:15.265Z,97037.53
2019-01-25T07:48:43.087Z,97025.91
2019-01-25T07:51:10.624Z,97036.50
2019-01-25T07:53:38.289Z,97034.16
2019-01-25T07:56:05.958Z,97033.67
2019-01-25T07:58:33.694Z,97035.72
2019-01-25T08:01:01.243Z,97022.80
2019-01-25T08:03:28.988Z,97036.73
2019-01-25T08:05:56.641Z,97036.61
2019-01-25T08:08:24.314Z,97036.11
2019-01-25T08:10:51.923Z,97026.81
2019-01-25T08:13:19.616Z,97029.48
2019-01-25T08:15:47.243Z,97026.73
2019-01-25T08:18:15.020Z,97030.99
2019-01-25T08:20:42.584Z,97024.59
2019-01-25T08:23:10.320Z,97030.71
2019-01-25T08:25:38.073Z,97027.35
2019-01-25T08:28:05.767Z,97025.25
2019-01-25T08:30:33.352Z,97022.53
2019-01-25T08:33:01.167Z,97023.63
2019-01-25T08:35:28.819Z,97025.59
2019-01-25T08:37:56.502Z,97014.16
2019-01-25T08:40:24.202Z,97021.48
2019-01-25T08:42:51.970Z,97008.52
2019-01-25T08:45:19.798Z,97005.66
2019-01-25T08:47:47.549Z,97008.64
2019-01-25T08:50:17.446Z,97006.69
2019-01-25T08:52:45.237Z,97010.72
2019-01-25T08:55:13.625Z,97011.05
2019-01-25T08:57:41.417Z,97006.44
2019-01-25T09:00:12.375Z,97001.36
2019-01-25T09:02:40.087Z,96985.75
2019-01-25T09:05:08.748Z,96986.17
2019-01-25T09:07:36.384Z,96987.78
2019-01-25T09:10:06.096Z,96984.61
2019-01-25T09:12:33.745Z,96985.61
2019-01-25T09:15:01.357Z,96993.56
2019-01-25T09:17:30.417Z,96986.07
2019-01-25T09:19:58.026Z,97000.25
2019-01-25T09:22:25.738Z,97006.10
2019-01-25T09:24:53.339Z,97006.98
2019-01-25T09:27:21.014Z,97004.93
2019-01-25T09:29:48.686Z,97016.05
2019-01-25T09:32:16.407Z,97007.45
2019-01-25T09:34:43.983Z,96997.84
2019-01-25T09:37:11.579Z,97012.94
2019-01-25T09:39:39.142Z,97019.44
2019-01-25T09:42:09.673Z,97017.76
2019-01-25T09:44:37.365Z,97023.86
2019-01-25T09:47:04.987Z,97021.50
2019-01-25T09:49:32.576Z,97032.80
2019-01-25T09:52:00.189Z,97052.78
2019-01-25T09:54:27.730Z,97053.72
2019-01-25T09:56:55.438Z,97065.23
2019-01-25T09:59:23.020Z,97072.12
2019-01-25T10:01:50.778Z,97068.36
2019-01-25T10:04:18.545Z,97063.20
2019-01-25T10:06:46.719Z,97075.66
2019-01-25T10:09:14.283Z,97062.47
2019-01-25T10:11:41.992Z,97059.39
2019-01-25T10:14:09.609Z,97060.52
2019-01-25T10:16:37.240Z,97069.63
2019-01-25T10:19:04.910Z,97075.25
2019-01-25T10:21:32.576Z,97075.10
2019-01-25T10:24:00.151Z,97074.70
2019-01-25T10:26:27.948Z,97079.67
2019-01-25T10:28:55.511Z,97077.59
2019-01-25T10:31:23.234Z,97076.42
2019-01-25T10:33:52.211Z,97074.83
2019-01-25T10:36:19.897Z,97070.88
2019-01-25T10:38:47.501Z,97067.67
2019-01-25T10:41:15.149Z,97066.34
2019-01-25T10:43:42.771Z,97064.89
2019-01-25T10:46:11.402Z,97063.45
2019-01-25T10:48:38.982Z,97060.16
2019-01-25T10:51:06.681Z,97060.84
2019-01-25T10:53:34.319Z,97056.52
2019-01-25T10:56:02.114Z,97037.16
2019-01-25T10:58:29.824Z,97032.56
2019-01-25T11:00:57.459Z,97031.47
2019-01-25T11:03:25.093Z,97041.84
2019-01-25T11:05:52.865Z,97037.92
2019-01-25T11:08:20.582Z,97039.47
2019-01-25T11:10:48.270Z,97040.84
2019-01-25T11:13:15.860Z,97040.92
2019-01-25T11:15:43.556Z,97050.17
2019-01-25T11:18:11.242Z,97040.27
2019-01-25T11:20:38.927Z,97035.68
2019-01-25T11:23:06.535Z,97039.81
2019-01-25T11:25:36.564Z,97035.68
2019-01-25T11:28:04.408Z,97040.56
2019-01-25T11:30:32.246Z,97043.04
2019-01-25T11:32:59.880Z,97040.22
2019-01-25T11:35:27.630Z,97056.81
2019-01-25T11:37:55.200Z,97049.07
2019-01-25T11:40:25.321Z,97043.30
2019-01-25T11:42:53.797Z,97050.30
2019-01-25T11:45:21.487Z,97037.01
2019-01-25T11:47:49.246Z,97035.86
2019-01-25T11:50:17.261Z,97056.03
2019-01-25T11:52:44.923Z,97057.73
2019-01-25T11:55:12.697Z,97059.09
2019-01-25T11:57:40.333Z,97048.62
2019-01-25T12:00:15.039Z,97061.45
2019-01-25T12:02:45.127Z,97061.48
2019-01-25T12:05:13.824Z,97055.73
2019-01-25T12:07:41.575Z,97057.20
2019-01-25T12:10:10.841Z,97054.11
2019-01-25T12:12:38.414Z,97052.86
2019-01-25T12:15:09.063Z,97061.09
2019-01-25T12:17:36.768Z,97064.84
2019-01-25T12:20:06.378Z,97057.52
2019-01-25T12:22:38.642Z,97057.23
2019-01-25T12:25:07.311Z,97052.05
2019-01-25T12:27:34.910Z,97054.50
2019-01-25T12:30:03.735Z,97054.50
2019-01-25T12:32:31.541Z,97060.53
2019-01-25T12:34:59.228Z,97058.35
2019-01-25T12:37:26.758Z,97062.23
2019-01-25T12:39:54.491Z,97058.94
2019-01-25T12:42:22.038Z,97051.28
2019-01-25T12:44:49.832Z,97056.69
2019-01-25T12:47:17.358Z,97050.52
2019-01-25T12:49:45.006Z,97049.12
2019-01-25T12:52:12.671Z,97055.53
2019-01-25T12:54:40.317Z,97052.11
2019-01-25T12:57:07.931Z,97046.37
2019-01-25T12:59:35.981Z,97044.01
2019-01-25T13:02:03.787Z,97029.14
2019-01-25T13:04:31.482Z,97020.69
2019-01-25T13:06:59.036Z,97024.11
2019-01-25T13:09:26.615Z,97021.20
2019-01-25T13:11:54.468Z,97027.23
2019-01-25T13:14:22.041Z,97029.87
2019-01-25T13:16:50.846Z,97029.80
2019-01-25T13:19:18.552Z,97026.09
2019-01-25T13:21:46.177Z,97035.04
2019-01-25T13:24:13.752Z,97027.50
2019-01-25T13:26:41.518Z,97019.34
2019-01-25T13:29:09.100Z,97018.86
2019-01-25T13:31:36.830Z,97017.13
2019-01-25T13:34:04.707Z,97014.48
2019-01-25T13:36:32.637Z,97010.25
2019-01-25T13:39:00.742Z,97013.63
2019-01-25T13:41:30.523Z,97007.79
2019-01-25T13:43:58.714Z,97002.08
2019-01-25T13:46:28.296Z,97002.31
2019-01-25T13:48:56.286Z,96991.77
2019-01-25T13:51:24.477Z,96990.22
2019-01-25T13:53:52.165Z,97006.62
2019-01-25T13:56:19.925Z,97004.57
2019-01-25T13:58:47.649Z,97003.66
2019-01-25T14:01:15.506Z,96992.20
2019-01-25T14:03:43.356Z,97001.44
2019-01-25T14:06:11.765Z,97010.61
2019-01-25T14:08:40.776Z,97004.11
2019-01-25T14:11:08.914Z,96993.14
2019-01-25T14:13:36.964Z,96999.99
2019-01-25T14:16:05.147Z,97004.33
2019-01-25T14:18:33.086Z,96996.73
2019-01-25T14:21:01.018Z,97001.19
2019-01-25T14:23:29.333Z,96986.38
2019-01-25T14:25:58.605Z,97002.52
2019-01-25T14:28:26.684Z,96982.74
2019-01-25T14:30:54.813Z,96981.28
2019-01-25T14:33:22.533Z,96981.36
2019-01-25T14:35:52.088Z,96987.29
2019-01-25T14:38:19.789Z,96990.77
2019-01-25T14:40:47.483Z,96991.70
2019-01-25T14:43:15.210Z,96997.98
2019-01-25T14:45:42.864Z,97001.59
2019-01-25T14:48:10.646Z,97000.28
2019-01-25T14:50:38.671Z,96995.72
2019-01-25T14:53:07.242Z,97006.31
2019-01-25T14:55:34.995Z,97011.08
2019-01-25T14:58:02.675Z,97002.26
2019-01-25T15:00:30.231Z,97009.58
2019-01-25T15:02:57.935Z,97017.71
2019-01-25T15:05:25.539Z,97023.58
2019-01-25T15:07:53.230Z,97018.98
2019-01-25T15:10:23.083Z,97025.82
2019-01-25T15:12:52.404Z,97027.50
2019-01-25T15:15:21.469Z,97035.44
2019-01-25T15:17:49.630Z,97040.52
2019-01-25T15:20:19.297Z,97041.81
2019-01-25T15:22:47.260Z,97044.02
2019-01-25T15:25:15.241Z,97054.16
2019-01-25T15:27:43.351Z,97065.67
2019-01-25T15:30:16.755Z,97070.52
2019-01-25T15:32:44.790Z,97068.91
2019-01-25T15:35:13.956Z,97071.61
2019-01-25T15:37:41.756Z,97073.45
2019-01-25T15:40:11.326Z,97079.34
2019-01-25T15:42:39.453Z,97081.64
2019-01-25T15:45:09.921Z,97081.61
2019-01-25T15:47:37.755Z,97086.06
2019-01-25T15:50:10.009Z,97083.86
2019-01-25T15:52:37.575Z,97081.25
2019-01-25T15:55:05.819Z,97096.99
2019-01-25T15:57:33.490Z,97108.10
2019-01-25T16:00:01.138Z,97112.28
2019-01-25T16:02:28.884Z,97115.49
2019-01-25T16:04:56.557Z,97120.97
2019-01-25T16:07:24.156Z,97128.31
2019-01-25T16:09:51.879Z,97139.59
2019-01-25T16:12:19.600Z,97131.85
2019-01-25T16:14:47.338Z,97129.24
2019-01-25T16:17:15.592Z,97136.94
2019-01-25T16:19:43.554Z,97138.02
2019-01-25T16:22:11.488Z,97140.39
2019-01-25T16:24:39.547Z,97147.73
2019-01-25T16:27:07.142Z,97154.34
2019-01-25T16:29:34.817Z,97156.02
2019-01-25T16:32:02.411Z,97170.72
2019-01-25T16:34:30.015Z,97163.11
2019-01-25T16:36:57.705Z,97174.76
2019-01-25T16:39:25.343Z,97175.58
2019-01-25T16:41:52.963Z,97177.74
2019-01-25T16:44:25.574Z,97181.23
2019-01-25T16:46:50.171Z,97183.80
2019-01-25T16:49:17.879Z,97190.00
2019-01-25T16:51:45.465Z,97195.84
2019-01-25T16:54:13.181Z,97197.20
2019-01-25T16:56:40.983Z,97197.41
2019-01-25T16:59:09.009Z,97209.11
2019-01-25T17:01:36.980Z,97208.84
2019-01-25T17:04:05.004Z,97209.23
2019-01-25T17:06:32.959Z,97216.41
2019-01-25T17:09:00.965Z,97228.23
2019-01-25T17:11:29.039Z,97223.38
2019-01-25T17:13:57.227Z,97228.11
2019-01-25T17:16:25.320Z,97218.39
2019-01-25T17:18:53.434Z,97229.70
2019-01-25T17:21:21.344Z,97229.70
2019-01-25T17:23:49.420Z,97235.77
2019-01-25T17:26:17.803Z,97240.95
2019-01-25T17:28:46.017Z,97240.08
2019-01-25T17:31:13.758Z,97238.80
2019-01-25T17:33:42.695Z,97239.34
2019-01-25T17:36:10.431Z,97236.19
2019-01-25T17:38:38.328Z,97231.63
2019-01-25T17:41:06.089Z,97244.48
2019-01-25T17:43:33.837Z,97249.63
2019-01-25T17:46:01.395Z,97231.64
2019-01-25T17:48:29.129Z,97251.52
2019-01-25T17:50:56.729Z,97245.09
2019-01-25T17:53:24.451Z,97250.70
2019-01-25T17:55:54.610Z,97253.53
2019-01-25T17:58:22.256Z,97249.76
2019-01-25T18:00:54.431Z,97255.92
2019-01-25T18:03:24.561Z,97252.02
2019-01-25T18:05:52.167Z,97247.48
2019-01-25T18:08:19.769Z,97257.80
2019-01-25T18:10:48.464Z,97254.49
2019-01-25T18:13:16.168Z,97249.22
2019-01-25T18:15:43.832Z,97255.15
2019-01-25T18:18:11.692Z,97260.31
2019-01-25T18:20:39.365Z,97261.19
2019-01-25T18:23:07.073Z,97261.33
2019-01-25T18:25:38.423Z,97264.38
2019-01-25T18:28:07.788Z,97262.67
2019-01-25T18:30:42.382Z,97266.89
2019-01-25T18:33:10.005Z,97269.09
2019-01-25T18:35:37.602Z,97260.54
2019-01-25T18:38:05.437Z,97258.53
2019-01-25T18:40:36.011Z,97257.59
2019-01-25T18:43:04.231Z,97247.23
2019-01-25T18:45:31.910Z,97245.50
2019-01-25T18:47:59.680Z,97242.47
2019-01-25T18:50:27.361Z,97249.33
2019-01-25T18:52:55.051Z,97249.73
2019-01-25T18:55:22.652Z,97253.61
2019-01-25T18:57:50.328Z,97231.61
2019-01-25T19:00:18.901Z,97247.84
2019-01-25T19:02:46.532Z,97245.25
2019-01-25T19:05:14.736Z,97244.44
2019-01-25T19:07:42.404Z,97243.95
2019-01-25T19:10:13.324Z,97251.25
2019-01-25T19:12:40.942Z,97252.39
2019-01-25T19:15:10.590Z,97246.77
2019-01-25T19:17:38.401Z,97242.83
2019-01-25T19:20:08.412Z,97245.44
2019-01-25T19:22:36.104Z,97239.06
2019-01-25T19:25:04.624Z,97237.27
2019-01-25T19:27:32.332Z,97246.24
2019-01-25T19:29:59.897Z,97237.89
2019-01-25T19:32:27.706Z,97239.92
2019-01-25T19:34:55.326Z,97232.00
2019-01-25T19:37:23.080Z,97231.04
2019-01-25T19:39:50.762Z,97229.42
2019-01-25T19:42:18.565Z,97221.61
2019-01-25T19:44:46.295Z,97226.37
2019-01-25T19:47:14.050Z,97231.90
2019-01-25T19:49:41.799Z,97225.87
2019-01-25T19:52:09.818Z,97221.48
2019-01-25T19:54:37.625Z,97224.33
2019-01-25T19:57:05.287Z,97226.48
2019-01-25T19:59:33.063Z,97204.70
2019-01-25T20:02:00.917Z,97214.18
2019-01-25T20:04:28.765Z,97221.83
2019-01-25T20:06:56.498Z,97220.41
2019-01-25T20:09:24.135Z,97209.49
2019-01-25T20:11:51.829Z,97213.69
2019-01-25T20:14:19.522Z,97212.51
2019-01-25T20:16:47.271Z,97213.24
2019-01-25T20:19:15.112Z,97211.95
2019-01-25T20:21:44.019Z,97209.01
2019-01-25T20:24:11.830Z,97219.71
2019-01-25T20:26:39.529Z,97219.05
2019-01-25T20:29:10.531Z,97223.86
2019-01-25T20:31:38.390Z,97222.09
2019-01-25T20:34:06.069Z,97224.73
2019-01-25T20:36:34.124Z,97219.91
2019-01-25T20:39:03.707Z,97228.67
2019-01-25T20:41:33.142Z,97225.80
2019-01-25T20:44:00.906Z,97236.07
2019-01-25T20:46:28.628Z,97230.73
2019-01-25T20:48:56.424Z,97233.43
2019-01-25T20:51:24.289Z,97235.48
2019-01-25T20:53:52.105Z,97237.74
2019-01-25T20:56:19.970Z,97234.25
2019-01-25T20:58:47.751Z,97235.48
2019-01-25T21:01:15.784Z,97235.56
2019-01-25T21:03:43.482Z,97239.44
2019-01-25T21:06:11.534Z,97236.86
2019-01-25T21:08:39.201Z,97240.66
2019-01-25T21:11:07.052Z,97237.77
2019-01-25T21:13:34.871Z,97233.99
2019-01-25T21:16:02.609Z,97244.77
2019-01-25T21:18:30.330Z,97239.60
2019-01-25T21:20:58.038Z,97234.97
2019-01-25T21:23:25.640Z,97240.11
2019-01-25T21:25:53.367Z,97234.91
2019-01-25T21:28:20.969Z,97234.39
2019-01-25T21:30:48.700Z,97237.77
2019-01-25T21:33:16.281Z,97236.89
2019-01-25T21:35:43.989Z,97235.25
2019-01-25T21:38:11.715Z,97230.98
2019-01-25T21:40:39.536Z,97244.38
2019-01-25T21:43:07.169Z,97230.44
2019-01-25T21:45:42.661Z,97232.28
2019-01-25T21:48:11.338Z,97231.52
2019-01-25T21:50:40.402Z,97231.95
2019-01-25T21:53:08.140Z,97237.28
2019-01-25T21:55:35.892Z,97234.59
2019-01-25T21:58:05.637Z,97235.89
2019-01-25T22:00:33.957Z,97223.93
2019-01-25T22:03:01.786Z,97230.84
2019-01-25T22:05:29.660Z,97228.31
2019-01-25T22:07:58.548Z,97228.73
2019-01-25T22:10:38.191Z,97230.03
2019-01-25T22:13:05.908Z,97231.39
2019-01-25T22:15:34.752Z,97231.53
2019-01-25T22:18:02.743Z,97234.10
2019-01-25T22:20:30.534Z,97231.60
2019-01-25T22:22:58.315Z,97229.50
2019-01-25T22:25:26.017Z,97231.18
2019-01-25T22:27:55.148Z,97220.80
2019-01-25T22:30:23.607Z,97232.09
2019-01-25T22:32:51.313Z,97223.89
2019-01-25T22:35:19.220Z,97224.80
2019-01-25T22:37:47.179Z,97223.95
2019-01-25T22:40:17.172Z,97214.81
2019-01-25T22:42:44.757Z,97215.77
2019-01-25T22:45:14.433Z,97211.91
2019-01-25T22:47:42.070Z,97213.78
2019-01-25T22:50:13.176Z,97212.97
2019-01-25T22:52:40.789Z,97210.38
2019-01-25T22:55:10.446Z,97211.66
2019-01-25T22:57:38.166Z,97206.17
2019-01-25T23:00:51.504Z,97211.37
2019-01-25T23:03:22.664Z,97213.98
2019-01-25T23:06:44.109Z,97211.52
2019-01-25T23:09:15.194Z,97202.88
2019-01-25T23:11:42.914Z,97202.63
2019-01-25T23:14:10.542Z,97197.13
2019-01-25T23:16:40.035Z,97205.68
2019-01-25T23:19:07.783Z,97200.52
2019-01-25T23:21:35.505Z,97189.83
2019-01-25T23:24:03.349Z,97191.59
2019-01-25T23:26:31.017Z,97197.19
2019-01-25T23:28:58.567Z,97194.67
2019-01-25T23:31:27.219Z,97192.62
2019-01-25T23:33:54.821Z,97193.63
2019-01-25T23:36:22.562Z,97189.75
2019-01-25T23:38:50.230Z,97194.17
2019-01-25T23:41:17.930Z,97180.80
2019-01-25T23:43:45.628Z,97183.38
2019-01-25T23:46:13.970Z,97183.24
2019-01-25T23:48:41.968Z,97169.83
2019-01-25T23:51:09.649Z,97170.70
2019-01-25T23:53:38.196Z,97166.31
2019-01-25T23:56:05.864Z,97172.42
2019-01-25T23:58:33.439Z,97165.55
